UKDE/OZH METAR and TAF weather

Enter ICAO airport designator
Station Type Date Time Source
UKDE METAR 2019/04/23 04:00 UTC NOAA

UKDE 230400Z 32001MPS CAVOK 05/M01 Q1028 R02R/090070 NOSIG


Station Type Date Time Source
UKDE Decoded METAR 2019/04/23 04:00 UTC NOAA

Zaporizhzhia / Mokraya, Ukraine (UKDE) 47-52-02N 035-18-59E
Apr 23, 2019 - 12:00 AM EDT / 2019.04.23 0400 UTC
Wind: from the NW (320 degrees) at 2 MPH (2 KT):0
Visibility: greater than 7 mile(s):0
Temperature: 41 F (5 C)
Dew Point: 30 F (-1 C)
Relative Humidity: 65%
Pressure (altimeter): 30.36 in. Hg (1028 hPa)
ob: UKDE 230400Z 32001MPS CAVOK 05/M01 Q1028 R02R/090070 NOSIG
cycle: 4

Station Type Date Time Source
UKDE TAF 2019/03/22 16:42 UTC NOAA

TAF
AMD TAF
AMD UKDE 221637Z 2216/2324 26009MPS 9999 BKN030CB TX10/2216Z TN03/2224Z
TEMPO 2216/2219 26011G16MPS 2100 -TSRA BKN010 BKN015CB
BECMG 2219/2221 29006MPS

Example: see airport list